sensor_id;sensor_type;location;lat;lon;timestamp;temperature;humidity
20712;DHT22;10517;50.742;4.224;2023-02-12T00:02:05;9.20;99.90
20712;DHT22;10517;50.742;4.224;2023-02-12T00:04:30;9.20;99.90
20712;DHT22;10517;50.742;4.224;2023-02-12T00:06:56;9.20;99.90
20712;DHT22;10517;50.742;4.224;2023-02-12T00:09:21;9.20;99.90
20712;DHT22;10517;50.742;4.224;2023-02-12T00:11:47;9.20;99.90
20712;DHT22;10517;50.742;4.224;2023-02-12T00:14:13;9.20;99.90
20712;DHT22;10517;50.742;4.224;2023-02-12T00:16:38;9.10;99.90
20712;DHT22;10517;50.742;4.224;2023-02-12T00:19:04;9.10;99.90
20712;DHT22;10517;50.742;4.224;2023-02-12T00:21:29;9.00;99.90
20712;DHT22;10517;50.742;4.224;2023-02-12T00:23:56;9.00;99.90
20712;DHT22;10517;50.742;4.224;2023-02-12T00:26:22;9.00;99.90
20712;DHT22;10517;50.742;4.224;2023-02-12T00:28:48;9.00;99.90
20712;DHT22;10517;50.742;4.224;2023-02-12T00:31:16;9.10;99.90
20712;DHT22;10517;50.742;4.224;2023-02-12T00:33:42;9.00;99.90
20712;DHT22;10517;50.742;4.224;2023-02-12T00:36:09;8.90;99.90
20712;DHT22;10517;50.742;4.224;2023-02-12T00:38:37;8.90;99.90
20712;DHT22;10517;50.742;4.224;2023-02-12T00:41:03;9.00;99.90
20712;DHT22;10517;50.742;4.224;2023-02-12T00:43:28;9.00;99.90
20712;DHT22;10517;50.742;4.224;2023-02-12T00:45:54;9.00;99.90
20712;DHT22;10517;50.742;4.224;2023-02-12T00:48:20;9.00;99.90
20712;DHT22;10517;50.742;4.224;2023-02-12T00:50:47;8.90;99.90
20712;DHT22;10517;50.742;4.224;2023-02-12T00:53:12;8.80;99.90
20712;DHT22;10517;50.742;4.224;2023-02-12T00:55:38;8.90;99.90
20712;DHT22;10517;50.742;4.224;2023-02-12T00:58:04;8.90;99.90
20712;DHT22;10517;50.742;4.224;2023-02-12T01:00:30;8.90;99.90
20712;DHT22;10517;50.742;4.224;2023-02-12T01:02:56;8.80;99.90
20712;DHT22;10517;50.742;4.224;2023-02-12T01:05:22;8.80;99.90
20712;DHT22;10517;50.742;4.224;2023-02-12T01:07:51;8.90;99.90
20712;DHT22;10517;50.742;4.224;2023-02-12T01:10:19;8.90;99.90
20712;DHT22;10517;50.742;4.224;2023-02-12T01:12:47;8.90;99.90
20712;DHT22;10517;50.742;4.224;2023-02-12T01:15:15;8.80;99.90
20712;DHT22;10517;50.742;4.224;2023-02-12T01:17:41;8.80;99.90
20712;DHT22;10517;50.742;4.224;2023-02-12T01:20:07;8.70;99.90
20712;DHT22;10517;50.742;4.224;2023-02-12T01:22:34;8.60;99.90
20712;DHT22;10517;50.742;4.224;2023-02-12T01:25:00;8.60;99.90
20712;DHT22;10517;50.742;4.224;2023-02-12T01:27:26;8.50;99.90
20712;DHT22;10517;50.742;4.224;2023-02-12T01:29:51;8.50;99.90
20712;DHT22;10517;50.742;4.224;2023-02-12T01:32:17;8.60;99.90
20712;DHT22;10517;50.742;4.224;2023-02-12T01:34:42;8.70;99.90
20712;DHT22;10517;50.742;4.224;2023-02-12T01:37:08;8.70;99.90
20712;DHT22;10517;50.742;4.224;2023-02-12T01:39:34;8.60;99.90
20712;DHT22;10517;50.742;4.224;2023-02-12T01:42:00;8.50;99.90
20712;DHT22;10517;50.742;4.224;2023-02-12T01:44:30;8.40;99.90
20712;DHT22;10517;50.742;4.224;2023-02-12T01:47:00;8.40;99.90
20712;DHT22;10517;50.742;4.224;2023-02-12T01:49:36;8.30;99.90
20712;DHT22;10517;50.742;4.224;2023-02-12T01:52:16;8.40;99.90
20712;DHT22;10517;50.742;4.224;2023-02-12T01:54:44;8.40;99.90
20712;DHT22;10517;50.742;4.224;2023-02-12T01:57:11;8.50;99.90
20712;DHT22;10517;50.742;4.224;2023-02-12T01:59:39;8.50;99.90
20712;DHT22;10517;50.742;4.224;2023-02-12T02:02:06;8.60;99.90
20712;DHT22;10517;50.742;4.224;2023-02-12T02:04:36;8.60;99.90
20712;DHT22;10517;50.742;4.224;2023-02-12T02:07:05;8.50;99.90
20712;DHT22;10517;50.742;4.224;2023-02-12T02:09:35;8.50;99.90
20712;DHT22;10517;50.742;4.224;2023-02-12T02:12:02;8.50;99.90
20712;DHT22;10517;50.742;4.224;2023-02-12T02:14:48;8.50;99.90
20712;DHT22;10517;50.742;4.224;2023-02-12T02:31:25;8.20;99.90
20712;DHT22;10517;50.742;4.224;2023-02-12T02:37:14;8.40;99.90
20712;DHT22;10517;50.742;4.224;2023-02-12T02:39:54;8.50;99.90
20712;DHT22;10517;50.742;4.224;2023-02-12T02:42:26;8.50;99.90
20712;DHT22;10517;50.742;4.224;2023-02-12T02:45:14;8.50;99.90
20712;DHT22;10517;50.742;4.224;2023-02-12T02:48:01;8.50;99.90
20712;DHT22;10517;50.742;4.224;2023-02-12T02:50:29;8.40;99.90
20712;DHT22;10517;50.742;4.224;2023-02-12T02:53:18;8.20;99.90
20712;DHT22;10517;50.742;4.224;2023-02-12T02:55:53;8.20;99.90
20712;DHT22;10517;50.742;4.224;2023-02-12T02:58:25;8.30;99.90
20712;DHT22;10517;50.742;4.224;2023-02-12T03:01:03;8.40;99.90
20712;DHT22;10517;50.742;4.224;2023-02-12T03:06:06;8.40;99.90
20712;DHT22;10517;50.742;4.224;2023-02-12T03:08:38;8.40;99.90
20712;DHT22;10517;50.742;4.224;2023-02-12T03:11:24;8.50;99.90
20712;DHT22;10517;50.742;4.224;2023-02-12T03:16:26;8.30;99.90
20712;DHT22;10517;50.742;4.224;2023-02-12T03:21:32;8.20;99.90
20712;DHT22;10517;50.742;4.224;2023-02-12T03:24:12;8.20;99.90
20712;DHT22;10517;50.742;4.224;2023-02-12T03:26:51;8.30;99.90
20712;DHT22;10517;50.742;4.224;2023-02-12T03:29:19;8.20;99.90
20712;DHT22;10517;50.742;4.224;2023-02-12T03:31:58;8.10;99.90
20712;DHT22;10517;50.742;4.224;2023-02-12T03:34:33;8.10;99.90
20712;DHT22;10517;50.742;4.224;2023-02-12T03:37:26;8.10;99.90
20712;DHT22;10517;50.742;4.224;2023-02-12T03:40:08;8.10;99.90
20712;DHT22;10517;50.742;4.224;2023-02-12T03:42:40;8.20;99.90
20712;DHT22;10517;50.742;4.224;2023-02-12T03:53:26;8.30;99.90
20712;DHT22;10517;50.742;4.224;2023-02-12T03:56:01;8.20;99.90
20712;DHT22;10517;50.742;4.224;2023-02-12T03:58:31;8.20;99.90
20712;DHT22;10517;50.742;4.224;2023-02-12T04:00:59;8.20;99.90
20712;DHT22;10517;50.742;4.224;2023-02-12T04:03:25;8.40;99.90
20712;DHT22;10517;50.742;4.224;2023-02-12T04:05:51;8.30;99.90
20712;DHT22;10517;50.742;4.224;2023-02-12T04:08:17;8.10;99.90
20712;DHT22;10517;50.742;4.224;2023-02-12T04:13:23;7.80;99.90
20712;DHT22;10517;50.742;4.224;2023-02-12T04:18:42;7.90;99.90
20712;DHT22;10517;50.742;4.224;2023-02-12T04:21:59;7.90;99.90
20712;DHT22;10517;50.742;4.224;2023-02-12T04:27:22;8.10;99.90
20712;DHT22;10517;50.742;4.224;2023-02-12T04:29:57;8.10;99.90
20712;DHT22;10517;50.742;4.224;2023-02-12T04:32:37;8.00;99.90
20712;DHT22;10517;50.742;4.224;2023-02-12T04:38:22;8.00;99.90
20712;DHT22;10517;50.742;4.224;2023-02-12T04:40:49;8.10;99.90
20712;DHT22;10517;50.742;4.224;2023-02-12T04:43:29;8.10;99.90
20712;DHT22;10517;50.742;4.224;2023-02-12T04:45:54;8.10;99.90
20712;DHT22;10517;50.742;4.224;2023-02-12T04:48:20;8.10;99.90
20712;DHT22;10517;50.742;4.224;2023-02-12T04:50:46;8.10;99.90
20712;DHT22;10517;50.742;4.224;2023-02-12T04:53:12;8.00;99.90
20712;DHT22;10517;50.742;4.224;2023-02-12T04:55:37;8.00;99.90
20712;DHT22;10517;50.742;4.224;2023-02-12T04:58:03;8.00;99.90
20712;DHT22;10517;50.742;4.224;2023-02-12T05:00:29;8.10;99.90
20712;DHT22;10517;50.742;4.224;2023-02-12T05:02:55;8.10;99.90
20712;DHT22;10517;50.742;4.224;2023-02-12T05:05:20;8.20;99.90
20712;DHT22;10517;50.742;4.224;2023-02-12T05:07:46;8.10;99.90
20712;DHT22;10517;50.742;4.224;2023-02-12T05:10:12;8.10;99.90
20712;DHT22;10517;50.742;4.224;2023-02-12T05:12:38;8.00;99.90
20712;DHT22;10517;50.742;4.224;2023-02-12T05:15:04;8.00;99.90
20712;DHT22;10517;50.742;4.224;2023-02-12T05:17:29;8.00;99.90
20712;DHT22;10517;50.742;4.224;2023-02-12T05:19:55;8.10;99.90
20712;DHT22;10517;50.742;4.224;2023-02-12T05:22:20;8.10;99.90
20712;DHT22;10517;50.742;4.224;2023-02-12T05:24:46;8.10;99.90
20712;DHT22;10517;50.742;4.224;2023-02-12T05:27:12;8.10;99.90
20712;DHT22;10517;50.742;4.224;2023-02-12T05:29:38;8.20;99.90
20712;DHT22;10517;50.742;4.224;2023-02-12T05:32:03;8.30;99.90
20712;DHT22;10517;50.742;4.224;2023-02-12T05:34:31;8.30;99.90
20712;DHT22;10517;50.742;4.224;2023-02-12T05:36:56;8.20;99.90
20712;DHT22;10517;50.742;4.224;2023-02-12T05:39:22;8.20;99.90
20712;DHT22;10517;50.742;4.224;2023-02-12T05:41:48;8.20;99.90
20712;DHT22;10517;50.742;4.224;2023-02-12T05:44:14;8.30;99.90
20712;DHT22;10517;50.742;4.224;2023-02-12T05:46:40;8.20;99.90
20712;DHT22;10517;50.742;4.224;2023-02-12T05:49:07;8.10;99.90
20712;DHT22;10517;50.742;4.224;2023-02-12T05:51:33;8.00;99.90
20712;DHT22;10517;50.742;4.224;2023-02-12T05:54:01;7.90;99.90
20712;DHT22;10517;50.742;4.224;2023-02-12T05:56:31;7.90;99.90
20712;DHT22;10517;50.742;4.224;2023-02-12T05:59:00;7.90;99.90
20712;DHT22;10517;50.742;4.224;2023-02-12T06:01:35;8.00;99.90
20712;DHT22;10517;50.742;4.224;2023-02-12T06:04:02;8.10;99.90
20712;DHT22;10517;50.742;4.224;2023-02-12T06:06:29;8.10;99.90
20712;DHT22;10517;50.742;4.224;2023-02-12T06:08:56;8.10;99.90
20712;DHT22;10517;50.742;4.224;2023-02-12T06:11:22;8.10;99.90
20712;DHT22;10517;50.742;4.224;2023-02-12T06:13:48;8.20;99.90
20712;DHT22;10517;50.742;4.224;2023-02-12T06:16:27;8.20;99.90
20712;DHT22;10517;50.742;4.224;2023-02-12T06:18:53;8.20;99.90
20712;DHT22;10517;50.742;4.224;2023-02-12T06:21:21;8.20;99.90
20712;DHT22;10517;50.742;4.224;2023-02-12T06:23:48;8.30;99.90
20712;DHT22;10517;50.742;4.224;2023-02-12T06:26:14;8.30;99.90
20712;DHT22;10517;50.742;4.224;2023-02-12T06:28:39;8.30;99.90
20712;DHT22;10517;50.742;4.224;2023-02-12T06:31:24;8.40;99.90
20712;DHT22;10517;50.742;4.224;2023-02-12T06:33:51;8.40;99.90
20712;DHT22;10517;50.742;4.224;2023-02-12T06:36:17;8.40;99.90
20712;DHT22;10517;50.742;4.224;2023-02-12T06:38:43;8.40;99.90
20712;DHT22;10517;50.742;4.224;2023-02-12T06:41:09;8.40;99.90
20712;DHT22;10517;50.742;4.224;2023-02-12T06:43:35;8.40;99.90
20712;DHT22;10517;50.742;4.224;2023-02-12T06:46:01;8.30;99.90
20712;DHT22;10517;50.742;4.224;2023-02-12T06:48:27;8.30;99.90
20712;DHT22;10517;50.742;4.224;2023-02-12T06:50:53;8.30;99.90
20712;DHT22;10517;50.742;4.224;2023-02-12T06:53:18;8.30;99.90
20712;DHT22;10517;50.742;4.224;2023-02-12T06:55:44;8.30;99.90
20712;DHT22;10517;50.742;4.224;2023-02-12T06:58:09;8.30;99.90
20712;DHT22;10517;50.742;4.224;2023-02-12T07:00:35;8.30;99.90
20712;DHT22;10517;50.742;4.224;2023-02-12T07:03:01;8.30;99.90
20712;DHT22;10517;50.742;4.224;2023-02-12T07:05:26;8.30;99.90
20712;DHT22;10517;50.742;4.224;2023-02-12T07:07:52;8.30;99.90
20712;DHT22;10517;50.742;4.224;2023-02-12T07:10:18;8.30;99.90
20712;DHT22;10517;50.742;4.224;2023-02-12T07:12:43;8.30;99.90
20712;DHT22;10517;50.742;4.224;2023-02-12T07:15:09;8.30;99.90
20712;DHT22;10517;50.742;4.224;2023-02-12T07:17:35;8.20;99.90
20712;DHT22;10517;50.742;4.224;2023-02-12T07:20:02;8.20;99.90
20712;DHT22;10517;50.742;4.224;2023-02-12T07:22:27;8.30;99.90
20712;DHT22;10517;50.742;4.224;2023-02-12T07:24:53;8.30;99.90
20712;DHT22;10517;50.742;4.224;2023-02-12T07:27:18;8.30;99.90
20712;DHT22;10517;50.742;4.224;2023-02-12T07:29:44;8.20;99.90
20712;DHT22;10517;50.742;4.224;2023-02-12T07:32:09;8.20;99.90
20712;DHT22;10517;50.742;4.224;2023-02-12T07:34:35;8.30;99.90
20712;DHT22;10517;50.742;4.224;2023-02-12T07:37:01;8.20;99.90
20712;DHT22;10517;50.742;4.224;2023-02-12T07:39:26;7.90;99.90
20712;DHT22;10517;50.742;4.224;2023-02-12T07:41:52;7.80;99.90
20712;DHT22;10517;50.742;4.224;2023-02-12T07:44:18;7.70;99.90
20712;DHT22;10517;50.742;4.224;2023-02-12T07:46:45;7.80;99.90
20712;DHT22;10517;50.742;4.224;2023-02-12T07:49:13;8.00;99.90
20712;DHT22;10517;50.742;4.224;2023-02-12T07:51:39;8.10;99.90
20712;DHT22;10517;50.742;4.224;2023-02-12T07:54:05;8.30;99.90
20712;DHT22;10517;50.742;4.224;2023-02-12T07:56:33;8.40;99.90
20712;DHT22;10517;50.742;4.224;2023-02-12T07:59:02;8.40;99.90
20712;DHT22;10517;50.742;4.224;2023-02-12T08:01:33;8.50;99.90
20712;DHT22;10517;50.742;4.224;2023-02-12T08:04:08;8.50;99.90
20712;DHT22;10517;50.742;4.224;2023-02-12T08:06:37;8.60;99.90
20712;DHT22;10517;50.742;4.224;2023-02-12T08:09:06;8.60;99.90
20712;DHT22;10517;50.742;4.224;2023-02-12T08:11:32;8.50;99.90
20712;DHT22;10517;50.742;4.224;2023-02-12T08:13:59;8.50;99.90
20712;DHT22;10517;50.742;4.224;2023-02-12T08:16:26;8.50;99.90
20712;DHT22;10517;50.742;4.224;2023-02-12T08:18:52;8.40;99.90
20712;DHT22;10517;50.742;4.224;2023-02-12T08:21:26;8.40;99.90
20712;DHT22;10517;50.742;4.224;2023-02-12T08:23:53;8.50;99.90
20712;DHT22;10517;50.742;4.224;2023-02-12T08:26:23;8.50;99.90
20712;DHT22;10517;50.742;4.224;2023-02-12T08:28:55;8.60;99.90
20712;DHT22;10517;50.742;4.224;2023-02-12T08:31:23;8.70;99.90
20712;DHT22;10517;50.742;4.224;2023-02-12T08:33:51;8.80;99.90
20712;DHT22;10517;50.742;4.224;2023-02-12T08:36:19;8.90;99.90
20712;DHT22;10517;50.742;4.224;2023-02-12T08:38:46;9.00;99.90
20712;DHT22;10517;50.742;4.224;2023-02-12T08:41:23;9.10;99.90
20712;DHT22;10517;50.742;4.224;2023-02-12T08:43:51;9.20;99.90
20712;DHT22;10517;50.742;4.224;2023-02-12T08:46:19;9.10;99.90
20712;DHT22;10517;50.742;4.224;2023-02-12T08:48:45;8.90;99.90
20712;DHT22;10517;50.742;4.224;2023-02-12T08:51:16;8.80;99.90
20712;DHT22;10517;50.742;4.224;2023-02-12T08:53:45;8.70;99.90
20712;DHT22;10517;50.742;4.224;2023-02-12T08:56:13;8.90;99.90
20712;DHT22;10517;50.742;4.224;2023-02-12T08:58:39;9.10;99.90
20712;DHT22;10517;50.742;4.224;2023-02-12T09:01:09;9.30;99.90
20712;DHT22;10517;50.742;4.224;2023-02-12T09:03:34;9.60;99.90
20712;DHT22;10517;50.742;4.224;2023-02-12T09:06:05;9.50;99.90
20712;DHT22;10517;50.742;4.224;2023-02-12T09:08:31;9.30;99.90
20712;DHT22;10517;50.742;4.224;2023-02-12T09:10:56;9.30;99.90
20712;DHT22;10517;50.742;4.224;2023-02-12T09:13:22;9.20;99.90
20712;DHT22;10517;50.742;4.224;2023-02-12T09:15:48;9.30;99.90
20712;DHT22;10517;50.742;4.224;2023-02-12T09:18:13;9.20;99.90
20712;DHT22;10517;50.742;4.224;2023-02-12T09:20:42;9.10;99.90
20712;DHT22;10517;50.742;4.224;2023-02-12T09:23:11;9.20;99.90
20712;DHT22;10517;50.742;4.224;2023-02-12T09:25:42;9.30;99.90
20712;DHT22;10517;50.742;4.224;2023-02-12T09:28:09;9.30;99.90
20712;DHT22;10517;50.742;4.224;2023-02-12T09:30:36;9.20;99.90
20712;DHT22;10517;50.742;4.224;2023-02-12T09:33:03;9.40;99.90
20712;DHT22;10517;50.742;4.224;2023-02-12T09:35:28;9.40;99.90
20712;DHT22;10517;50.742;4.224;2023-02-12T09:37:54;9.20;99.90
20712;DHT22;10517;50.742;4.224;2023-02-12T09:43:17;9.30;99.90
20712;DHT22;10517;50.742;4.224;2023-02-12T09:45:57;9.20;99.90
20712;DHT22;10517;50.742;4.224;2023-02-12T09:48:29;9.20;99.90
20712;DHT22;10517;50.742;4.224;2023-02-12T09:50:58;9.20;99.90
20712;DHT22;10517;50.742;4.224;2023-02-12T09:53:27;9.30;99.90
20712;DHT22;10517;50.742;4.224;2023-02-12T09:55:55;9.30;99.90
20712;DHT22;10517;50.742;4.224;2023-02-12T09:58:37;9.30;99.90
20712;DHT22;10517;50.742;4.224;2023-02-12T10:01:17;9.30;99.90
20712;DHT22;10517;50.742;4.224;2023-02-12T10:03:45;9.40;99.90
20712;DHT22;10517;50.742;4.224;2023-02-12T10:06:30;9.50;99.90
20712;DHT22;10517;50.742;4.224;2023-02-12T10:17:32;9.30;99.90
20712;DHT22;10517;50.742;4.224;2023-02-12T10:25:47;9.80;99.90
20712;DHT22;10517;50.742;4.224;2023-02-12T10:28:21;9.90;99.90
20712;DHT22;10517;50.742;4.224;2023-02-12T10:30:56;10.20;99.90
20712;DHT22;10517;50.742;4.224;2023-02-12T10:38:41;9.70;99.90
20712;DHT22;10517;50.742;4.224;2023-02-12T10:41:12;9.70;99.90
20712;DHT22;10517;50.742;4.224;2023-02-12T10:43:40;9.80;99.90
20712;DHT22;10517;50.742;4.224;2023-02-12T10:46:07;9.70;99.90
20712;DHT22;10517;50.742;4.224;2023-02-12T10:48:37;9.60;99.90
20712;DHT22;10517;50.742;4.224;2023-02-12T10:51:10;9.60;99.90
20712;DHT22;10517;50.742;4.224;2023-02-12T10:53:41;9.50;99.90
20712;DHT22;10517;50.742;4.224;2023-02-12T10:56:12;9.50;99.90
20712;DHT22;10517;50.742;4.224;2023-02-12T10:58:39;9.50;99.90
20712;DHT22;10517;50.742;4.224;2023-02-12T11:01:15;9.50;99.90
20712;DHT22;10517;50.742;4.224;2023-02-12T11:03:42;9.40;99.90
20712;DHT22;10517;50.742;4.224;2023-02-12T11:06:26;9.50;99.90
20712;DHT22;10517;50.742;4.224;2023-02-12T11:08:53;9.80;99.90
20712;DHT22;10517;50.742;4.224;2023-02-12T11:11:24;10.00;99.90
20712;DHT22;10517;50.742;4.224;2023-02-12T11:14:06;10.00;99.90
20712;DHT22;10517;50.742;4.224;2023-02-12T11:16:59;10.20;99.90
20712;DHT22;10517;50.742;4.224;2023-02-12T11:19:28;10.60;99.90
20712;DHT22;10517;50.742;4.224;2023-02-12T11:22:24;10.90;99.90
20712;DHT22;10517;50.742;4.224;2023-02-12T11:24:59;11.20;99.90
20712;DHT22;10517;50.742;4.224;2023-02-12T11:27:28;11.00;99.90
20712;DHT22;10517;50.742;4.224;2023-02-12T11:32:36;10.90;99.90
20712;DHT22;10517;50.742;4.224;2023-02-12T11:35:14;11.00;99.90
20712;DHT22;10517;50.742;4.224;2023-02-12T11:37:44;10.80;99.90
20712;DHT22;10517;50.742;4.224;2023-02-12T11:40:25;10.80;99.90
20712;DHT22;10517;50.742;4.224;2023-02-12T11:42:57;11.00;99.90
20712;DHT22;10517;50.742;4.224;2023-02-12T11:45:43;11.00;99.90
20712;DHT22;10517;50.742;4.224;2023-02-12T11:48:17;11.10;99.90
20712;DHT22;10517;50.742;4.224;2023-02-12T11:50:50;11.20;99.90
20712;DHT22;10517;50.742;4.224;2023-02-12T11:53:24;11.20;99.90
20712;DHT22;10517;50.742;4.224;2023-02-12T11:56:03;11.20;99.90
20712;DHT22;10517;50.742;4.224;2023-02-12T11:58:30;10.90;99.90
20712;DHT22;10517;50.742;4.224;2023-02-12T12:04:02;11.20;99.90
20712;DHT22;10517;50.742;4.224;2023-02-12T12:06:37;11.00;99.90
20712;DHT22;10517;50.742;4.224;2023-02-12T12:09:12;11.00;99.90
20712;DHT22;10517;50.742;4.224;2023-02-12T12:11:56;11.00;99.90
20712;DHT22;10517;50.742;4.224;2023-02-12T12:14:40;11.00;99.90
20712;DHT22;10517;50.742;4.224;2023-02-12T12:17:35;10.80;99.90
20712;DHT22;10517;50.742;4.224;2023-02-12T12:20:24;10.70;99.90
20712;DHT22;10517;50.742;4.224;2023-02-12T12:23:02;10.80;99.90
20712;DHT22;10517;50.742;4.224;2023-02-12T12:25:35;10.70;99.90
20712;DHT22;10517;50.742;4.224;2023-02-12T12:28:27;10.90;99.90
20712;DHT22;10517;50.742;4.224;2023-02-12T12:31:24;11.10;99.90
20712;DHT22;10517;50.742;4.224;2023-02-12T12:39:26;11.00;99.90
20712;DHT22;10517;50.742;4.224;2023-02-12T12:53:39;10.60;99.90
20712;DHT22;10517;50.742;4.224;2023-02-12T13:10:07;10.60;99.90
20712;DHT22;10517;50.742;4.224;2023-02-12T13:18:00;10.30;99.90
20712;DHT22;10517;50.742;4.224;2023-02-12T13:20:52;10.20;99.90
20712;DHT22;10517;50.742;4.224;2023-02-12T13:29:07;10.20;99.90
20712;DHT22;10517;50.742;4.224;2023-02-12T13:31:48;10.20;99.90
20712;DHT22;10517;50.742;4.224;2023-02-12T13:34:16;10.20;99.90
20712;DHT22;10517;50.742;4.224;2023-02-12T13:36:42;10.10;99.90
20712;DHT22;10517;50.742;4.224;2023-02-12T13:39:24;10.10;99.90
20712;DHT22;10517;50.742;4.224;2023-02-12T13:45:14;10.10;99.90
20712;DHT22;10517;50.742;4.224;2023-02-12T13:50:48;9.90;99.90
20712;DHT22;10517;50.742;4.224;2023-02-12T14:01:04;9.80;99.90
20712;DHT22;10517;50.742;4.224;2023-02-12T14:03:30;9.90;99.90
20712;DHT22;10517;50.742;4.224;2023-02-12T14:06:12;9.90;99.90
20712;DHT22;10517;50.742;4.224;2023-02-12T14:08:50;10.00;99.90
20712;DHT22;10517;50.742;4.224;2023-02-12T14:11:18;9.90;99.90
20712;DHT22;10517;50.742;4.224;2023-02-12T14:13:53;10.00;99.90
20712;DHT22;10517;50.742;4.224;2023-02-12T14:21:57;9.90;99.90
20712;DHT22;10517;50.742;4.224;2023-02-12T14:27:25;9.80;99.90
20712;DHT22;10517;50.742;4.224;2023-02-12T14:35:41;9.90;99.90
20712;DHT22;10517;50.742;4.224;2023-02-12T14:40:46;10.00;99.90
20712;DHT22;10517;50.742;4.224;2023-02-12T14:45:53;9.90;99.90
20712;DHT22;10517;50.742;4.224;2023-02-12T14:48:48;9.80;99.90
20712;DHT22;10517;50.742;4.224;2023-02-12T14:51:37;9.90;99.90
20712;DHT22;10517;50.742;4.224;2023-02-12T14:54:15;9.80;99.90
20712;DHT22;10517;50.742;4.224;2023-02-12T14:56:48;9.70;99.90
20712;DHT22;10517;50.742;4.224;2023-02-12T14:59:19;9.70;99.90
20712;DHT22;10517;50.742;4.224;2023-02-12T15:01:47;9.70;99.90
20712;DHT22;10517;50.742;4.224;2023-02-12T15:04:53;9.60;99.90
20712;DHT22;10517;50.742;4.224;2023-02-12T15:07:15;9.70;99.90
20712;DHT22;10517;50.742;4.224;2023-02-12T15:09:54;9.70;99.90
20712;DHT22;10517;50.742;4.224;2023-02-12T15:12:29;9.70;99.90
20712;DHT22;10517;50.742;4.224;2023-02-12T15:15:33;9.70;99.90
20712;DHT22;10517;50.742;4.224;2023-02-12T15:18:14;9.70;99.90
20712;DHT22;10517;50.742;4.224;2023-02-12T15:20:50;9.70;99.90
20712;DHT22;10517;50.742;4.224;2023-02-12T15:26:32;9.60;99.90
20712;DHT22;10517;50.742;4.224;2023-02-12T15:28:58;9.60;99.90
20712;DHT22;10517;50.742;4.224;2023-02-12T15:31:29;9.60;99.90
20712;DHT22;10517;50.742;4.224;2023-02-12T15:34:02;9.60;99.90
20712;DHT22;10517;50.742;4.224;2023-02-12T15:36:30;9.60;99.90
20712;DHT22;10517;50.742;4.224;2023-02-12T15:39:02;9.70;99.90
20712;DHT22;10517;50.742;4.224;2023-02-12T15:43:57;9.60;99.90
20712;DHT22;10517;50.742;4.224;2023-02-12T15:46:23;9.50;99.90
20712;DHT22;10517;50.742;4.224;2023-02-12T15:48:49;9.60;99.90
20712;DHT22;10517;50.742;4.224;2023-02-12T15:51:34;9.50;99.90
20712;DHT22;10517;50.742;4.224;2023-02-12T15:54:04;9.60;99.90
20712;DHT22;10517;50.742;4.224;2023-02-12T15:56:31;9.60;99.90
20712;DHT22;10517;50.742;4.224;2023-02-12T15:58:59;9.60;99.90
20712;DHT22;10517;50.742;4.224;2023-02-12T16:01:31;9.70;99.90
20712;DHT22;10517;50.742;4.224;2023-02-12T16:03:59;9.70;99.90
20712;DHT22;10517;50.742;4.224;2023-02-12T16:06:28;9.70;99.90
20712;DHT22;10517;50.742;4.224;2023-02-12T16:09:00;9.70;99.90
20712;DHT22;10517;50.742;4.224;2023-02-12T16:11:27;9.60;99.90
20712;DHT22;10517;50.742;4.224;2023-02-12T16:14:06;9.60;99.90
20712;DHT22;10517;50.742;4.224;2023-02-12T16:16:44;9.50;99.90
20712;DHT22;10517;50.742;4.224;2023-02-12T16:19:29;9.50;99.90
20712;DHT22;10517;50.742;4.224;2023-02-12T16:24:31;9.50;99.90
20712;DHT22;10517;50.742;4.224;2023-02-12T16:27:21;9.40;99.90
20712;DHT22;10517;50.742;4.224;2023-02-12T16:29:51;9.40;99.90
20712;DHT22;10517;50.742;4.224;2023-02-12T16:32:37;9.40;99.90
20712;DHT22;10517;50.742;4.224;2023-02-12T16:35:24;9.50;99.90
20712;DHT22;10517;50.742;4.224;2023-02-12T16:37:52;9.40;99.90
20712;DHT22;10517;50.742;4.224;2023-02-12T16:40:34;9.40;99.90
20712;DHT22;10517;50.742;4.224;2023-02-12T16:43:20;9.20;99.90
20712;DHT22;10517;50.742;4.224;2023-02-12T16:45:47;9.10;99.90
20712;DHT22;10517;50.742;4.224;2023-02-12T16:48:22;9.10;99.90
20712;DHT22;10517;50.742;4.224;2023-02-12T16:50:58;9.10;99.90
20712;DHT22;10517;50.742;4.224;2023-02-12T16:55:56;9.00;99.90
20712;DHT22;10517;50.742;4.224;2023-02-12T16:58:21;9.00;99.90
20712;DHT22;10517;50.742;4.224;2023-02-12T17:00:48;8.90;99.90
20712;DHT22;10517;50.742;4.224;2023-02-12T17:03:15;9.00;99.90
20712;DHT22;10517;50.742;4.224;2023-02-12T17:05:41;9.10;99.90
20712;DHT22;10517;50.742;4.224;2023-02-12T17:08:20;9.00;99.90
20712;DHT22;10517;50.742;4.224;2023-02-12T17:10:46;9.10;99.90
20712;DHT22;10517;50.742;4.224;2023-02-12T17:13:13;9.20;99.90
20712;DHT22;10517;50.742;4.224;2023-02-12T17:15:48;9.20;99.90
20712;DHT22;10517;50.742;4.224;2023-02-12T17:18:14;9.20;99.90
20712;DHT22;10517;50.742;4.224;2023-02-12T17:20:40;9.10;99.90
20712;DHT22;10517;50.742;4.224;2023-02-12T17:23:06;9.10;99.90
20712;DHT22;10517;50.742;4.224;2023-02-12T17:25:34;9.10;99.90
20712;DHT22;10517;50.742;4.224;2023-02-12T17:28:00;8.90;99.90
20712;DHT22;10517;50.742;4.224;2023-02-12T17:30:26;8.90;99.90
20712;DHT22;10517;50.742;4.224;2023-02-12T17:32:53;8.90;99.90
20712;DHT22;10517;50.742;4.224;2023-02-12T17:35:19;8.90;99.90
20712;DHT22;10517;50.742;4.224;2023-02-12T17:37:44;8.90;99.90
20712;DHT22;10517;50.742;4.224;2023-02-12T17:40:12;8.80;99.90
20712;DHT22;10517;50.742;4.224;2023-02-12T17:42:37;8.70;99.90
20712;DHT22;10517;50.742;4.224;2023-02-12T17:45:03;8.70;99.90
20712;DHT22;10517;50.742;4.224;2023-02-12T17:47:29;8.70;99.90
20712;DHT22;10517;50.742;4.224;2023-02-12T17:49:55;8.70;99.90
20712;DHT22;10517;50.742;4.224;2023-02-12T17:52:21;8.60;99.90
20712;DHT22;10517;50.742;4.224;2023-02-12T17:54:47;8.70;99.90
20712;DHT22;10517;50.742;4.224;2023-02-12T17:57:12;8.70;99.90
20712;DHT22;10517;50.742;4.224;2023-02-12T17:59:39;8.70;99.90
20712;DHT22;10517;50.742;4.224;2023-02-12T18:02:06;8.60;99.90
20712;DHT22;10517;50.742;4.224;2023-02-12T18:04:32;8.60;99.90
20712;DHT22;10517;50.742;4.224;2023-02-12T18:07:00;8.50;99.90
20712;DHT22;10517;50.742;4.224;2023-02-12T18:09:26;8.50;99.90
20712;DHT22;10517;50.742;4.224;2023-02-12T18:11:52;8.50;99.90
20712;DHT22;10517;50.742;4.224;2023-02-12T18:14:17;8.60;99.90
20712;DHT22;10517;50.742;4.224;2023-02-12T18:16:43;8.60;99.90
20712;DHT22;10517;50.742;4.224;2023-02-12T18:19:08;8.60;99.90
20712;DHT22;10517;50.742;4.224;2023-02-12T18:21:34;8.60;99.90
20712;DHT22;10517;50.742;4.224;2023-02-12T18:24:00;8.70;99.90
20712;DHT22;10517;50.742;4.224;2023-02-12T18:26:25;8.60;99.90
20712;DHT22;10517;50.742;4.224;2023-02-12T18:28:51;8.70;99.90
20712;DHT22;10517;50.742;4.224;2023-02-12T18:31:18;8.70;99.90
20712;DHT22;10517;50.742;4.224;2023-02-12T18:33:44;8.60;99.90
20712;DHT22;10517;50.742;4.224;2023-02-12T18:36:13;8.70;99.90
20712;DHT22;10517;50.742;4.224;2023-02-12T18:38:40;8.60;99.90
20712;DHT22;10517;50.742;4.224;2023-02-12T18:41:08;8.70;99.90
20712;DHT22;10517;50.742;4.224;2023-02-12T18:43:34;8.70;99.90
20712;DHT22;10517;50.742;4.224;2023-02-12T18:46:11;8.70;99.90